sensor_id;sensor_type;location;lat;lon;timestamp;P1;durP1;ratioP1;P2;durP2;ratioP2
3101;SDS011;1561;42.666;23.392;2023-04-25T00:00:09;5.70;;;5.20;;
3101;SDS011;1561;42.666;23.392;2023-04-25T00:05:42;5.53;;;4.97;;
3101;SDS011;1561;42.666;23.392;2023-04-25T00:11:22;7.60;;;6.50;;
3101;SDS011;1561;42.666;23.392;2023-04-25T00:13:50;6.40;;;5.30;;
3101;SDS011;1561;42.666;23.392;2023-04-25T00:16:31;6.53;;;5.63;;
3101;SDS011;1561;42.666;23.392;2023-04-25T00:22:02;6.70;;;6.00;;
3101;SDS011;1561;42.666;23.392;2023-04-25T00:27:40;8.03;;;6.00;;
3101;SDS011;1561;42.666;23.392;2023-04-25T00:30:13;8.33;;;7.07;;
3101;SDS011;1561;42.666;23.392;2023-04-25T00:32:41;7.77;;;5.90;;
3101;SDS011;1561;42.666;23.392;2023-04-25T00:38:11;5.43;;;4.80;;
3101;SDS011;1561;42.666;23.392;2023-04-25T00:40:38;5.90;;;5.30;;
3101;SDS011;1561;42.666;23.392;2023-04-25T00:43:08;5.20;;;4.50;;
3101;SDS011;1561;42.666;23.392;2023-04-25T00:45:37;5.97;;;5.17;;
3101;SDS011;1561;42.666;23.392;2023-04-25T00:48:06;5.13;;;4.53;;
3101;SDS011;1561;42.666;23.392;2023-04-25T00:50:33;4.80;;;4.07;;
3101;SDS011;1561;42.666;23.392;2023-04-25T00:53:01;5.63;;;4.90;;
3101;SDS011;1561;42.666;23.392;2023-04-25T00:58:33;5.50;;;4.73;;
3101;SDS011;1561;42.666;23.392;2023-04-25T01:01:06;5.07;;;4.10;;
3101;SDS011;1561;42.666;23.392;2023-04-25T01:03:40;4.87;;;4.20;;
3101;SDS011;1561;42.666;23.392;2023-04-25T01:09:11;4.10;;;3.70;;
3101;SDS011;1561;42.666;23.392;2023-04-25T01:11:39;4.70;;;3.73;;
3101;SDS011;1561;42.666;23.392;2023-04-25T01:14:07;5.93;;;3.53;;
3101;SDS011;1561;42.666;23.392;2023-04-25T01:16:38;8.07;;;4.27;;
3101;SDS011;1561;42.666;23.392;2023-04-25T01:19:05;5.33;;;4.43;;
3101;SDS011;1561;42.666;23.392;2023-04-25T01:21:37;5.57;;;4.23;;
3101;SDS011;1561;42.666;23.392;2023-04-25T01:27:06;5.97;;;4.67;;
3101;SDS011;1561;42.666;23.392;2023-04-25T01:32:43;5.27;;;4.77;;
3101;SDS011;1561;42.666;23.392;2023-04-25T01:38:15;6.23;;;4.57;;
3101;SDS011;1561;42.666;23.392;2023-04-25T01:40:42;5.57;;;5.00;;
3101;SDS011;1561;42.666;23.392;2023-04-25T01:43:12;5.73;;;4.93;;
3101;SDS011;1561;42.666;23.392;2023-04-25T01:45:53;5.47;;;4.97;;
3101;SDS011;1561;42.666;23.392;2023-04-25T01:48:21;5.17;;;4.67;;
3101;SDS011;1561;42.666;23.392;2023-04-25T01:50:49;5.80;;;5.20;;
3101;SDS011;1561;42.666;23.392;2023-04-25T01:56:22;6.83;;;5.70;;
3101;SDS011;1561;42.666;23.392;2023-04-25T02:01:54;6.40;;;5.80;;
3101;SDS011;1561;42.666;23.392;2023-04-25T02:04:21;5.90;;;5.30;;
3101;SDS011;1561;42.666;23.392;2023-04-25T02:06:50;7.50;;;5.43;;
3101;SDS011;1561;42.666;23.392;2023-04-25T02:12:24;7.60;;;5.87;;
3101;SDS011;1561;42.666;23.392;2023-04-25T02:17:54;9.17;;;6.60;;
3101;SDS011;1561;42.666;23.392;2023-04-25T02:23:23;8.07;;;6.43;;
3101;SDS011;1561;42.666;23.392;2023-04-25T02:28:56;8.57;;;6.60;;
3101;SDS011;1561;42.666;23.392;2023-04-25T02:55:50;7.70;;;6.87;;
3101;SDS011;1561;42.666;23.392;2023-04-25T02:58:21;13.40;;;8.40;;
3101;SDS011;1561;42.666;23.392;2023-04-25T03:03:52;9.87;;;7.50;;
3101;SDS011;1561;42.666;23.392;2023-04-25T03:06:20;9.93;;;7.60;;
3101;SDS011;1561;42.666;23.392;2023-04-25T03:08:48;9.50;;;7.87;;
3101;SDS011;1561;42.666;23.392;2023-04-25T03:11:16;9.63;;;8.10;;
3101;SDS011;1561;42.666;23.392;2023-04-25T03:13:45;12.57;;;9.47;;
3101;SDS011;1561;42.666;23.392;2023-04-25T03:16:15;10.60;;;8.40;;
3101;SDS011;1561;42.666;23.392;2023-04-25T03:24:51;12.10;;;9.17;;
3101;SDS011;1561;42.666;23.392;2023-04-25T03:45:37;12.23;;;9.63;;
3101;SDS011;1561;42.666;23.392;2023-04-25T03:51:23;12.07;;;10.20;;
3101;SDS011;1561;42.666;23.392;2023-04-25T03:53:51;11.97;;;9.70;;
3101;SDS011;1561;42.666;23.392;2023-04-25T03:56:19;14.33;;;12.43;;
3101;SDS011;1561;42.666;23.392;2023-04-25T03:58:49;15.67;;;13.10;;
3101;SDS011;1561;42.666;23.392;2023-04-25T04:01:20;16.03;;;13.57;;
3101;SDS011;1561;42.666;23.392;2023-04-25T04:03:47;19.90;;;17.70;;
3101;SDS011;1561;42.666;23.392;2023-04-25T04:09:46;12.40;;;10.43;;
3101;SDS011;1561;42.666;23.392;2023-04-25T04:18:17;9.07;;;7.60;;
3101;SDS011;1561;42.666;23.392;2023-04-25T04:20:47;10.07;;;8.20;;
3101;SDS011;1561;42.666;23.392;2023-04-25T04:23:14;9.27;;;7.97;;
3101;SDS011;1561;42.666;23.392;2023-04-25T04:25:45;9.47;;;8.50;;
3101;SDS011;1561;42.666;23.392;2023-04-25T04:28:12;7.97;;;7.20;;
3101;SDS011;1561;42.666;23.392;2023-04-25T04:30:42;9.37;;;7.43;;
3101;SDS011;1561;42.666;23.392;2023-04-25T04:33:23;8.33;;;7.40;;
3101;SDS011;1561;42.666;23.392;2023-04-25T04:35:51;7.30;;;6.60;;
3101;SDS011;1561;42.666;23.392;2023-04-25T04:38:18;8.00;;;7.00;;
3101;SDS011;1561;42.666;23.392;2023-04-25T04:40:47;7.10;;;6.40;;
3101;SDS011;1561;42.666;23.392;2023-04-25T04:43:13;8.50;;;7.60;;
3101;SDS011;1561;42.666;23.392;2023-04-25T04:48:47;9.33;;;8.40;;
3101;SDS011;1561;42.666;23.392;2023-04-25T04:51:14;10.77;;;9.10;;
3101;SDS011;1561;42.666;23.392;2023-04-25T04:53:40;10.20;;;9.20;;
3101;SDS011;1561;42.666;23.392;2023-04-25T05:05:05;11.20;;;8.67;;
3101;SDS011;1561;42.666;23.392;2023-04-25T05:07:49;13.60;;;11.27;;
3101;SDS011;1561;42.666;23.392;2023-04-25T05:10:18;12.90;;;11.20;;
3101;SDS011;1561;42.666;23.392;2023-04-25T05:15:32;14.40;;;12.50;;
3101;SDS011;1561;42.666;23.392;2023-04-25T05:18:00;12.80;;;11.20;;
3101;SDS011;1561;42.666;23.392;2023-04-25T05:20:30;12.87;;;10.93;;
3101;SDS011;1561;42.666;23.392;2023-04-25T05:22:58;11.73;;;10.50;;
3101;SDS011;1561;42.666;23.392;2023-04-25T05:25:26;11.37;;;9.20;;
3101;SDS011;1561;42.666;23.392;2023-04-25T05:27:52;14.30;;;11.20;;
3101;SDS011;1561;42.666;23.392;2023-04-25T05:33:26;13.07;;;10.30;;
3101;SDS011;1561;42.666;23.392;2023-04-25T05:35:54;12.03;;;9.87;;
3101;SDS011;1561;42.666;23.392;2023-04-25T05:38:22;11.27;;;9.43;;
3101;SDS011;1561;42.666;23.392;2023-04-25T05:40:48;12.20;;;10.87;;
3101;SDS011;1561;42.666;23.392;2023-04-25T05:43:18;12.60;;;9.33;;
3101;SDS011;1561;42.666;23.392;2023-04-25T05:45:46;14.10;;;10.90;;
3101;SDS011;1561;42.666;23.392;2023-04-25T05:48:13;14.70;;;11.43;;
3101;SDS011;1561;42.666;23.392;2023-04-25T05:50:40;13.63;;;11.13;;
3101;SDS011;1561;42.666;23.392;2023-04-25T05:53:08;14.10;;;11.60;;
3101;SDS011;1561;42.666;23.392;2023-04-25T05:55:34;12.00;;;10.50;;
3101;SDS011;1561;42.666;23.392;2023-04-25T05:58:01;24.03;;;14.77;;
3101;SDS011;1561;42.666;23.392;2023-04-25T06:00:29;9.87;;;8.87;;
3101;SDS011;1561;42.666;23.392;2023-04-25T06:03:03;10.03;;;7.80;;
3101;SDS011;1561;42.666;23.392;2023-04-25T06:05:29;32.67;;;19.00;;
3101;SDS011;1561;42.666;23.392;2023-04-25T06:17:12;8.53;;;7.30;;
3101;SDS011;1561;42.666;23.392;2023-04-25T06:19:39;8.63;;;7.73;;
3101;SDS011;1561;42.666;23.392;2023-04-25T06:22:06;9.53;;;7.90;;
3101;SDS011;1561;42.666;23.392;2023-04-25T06:24:33;9.67;;;7.93;;
3101;SDS011;1561;42.666;23.392;2023-04-25T06:27:00;7.20;;;6.50;;
3101;SDS011;1561;42.666;23.392;2023-04-25T06:29:27;7.80;;;6.33;;
3101;SDS011;1561;42.666;23.392;2023-04-25T06:31:55;9.47;;;7.13;;
3101;SDS011;1561;42.666;23.392;2023-04-25T06:34:25;8.57;;;7.50;;
3101;SDS011;1561;42.666;23.392;2023-04-25T06:36:52;9.90;;;7.70;;
3101;SDS011;1561;42.666;23.392;2023-04-25T06:39:20;9.60;;;7.93;;
3101;SDS011;1561;42.666;23.392;2023-04-25T06:41:49;8.20;;;7.40;;
3101;SDS011;1561;42.666;23.392;2023-04-25T06:44:20;7.70;;;7.00;;
3101;SDS011;1561;42.666;23.392;2023-04-25T06:46:49;7.30;;;6.00;;
3101;SDS011;1561;42.666;23.392;2023-04-25T06:49:19;6.20;;;5.03;;
3101;SDS011;1561;42.666;23.392;2023-04-25T06:51:49;4.57;;;4.17;;
3101;SDS011;1561;42.666;23.392;2023-04-25T06:54:18;6.00;;;5.40;;
3101;SDS011;1561;42.666;23.392;2023-04-25T06:56:49;7.20;;;4.70;;
3101;SDS011;1561;42.666;23.392;2023-04-25T06:59:18;4.53;;;4.13;;
3101;SDS011;1561;42.666;23.392;2023-04-25T07:05:08;5.50;;;4.27;;
3101;SDS011;1561;42.666;23.392;2023-04-25T07:08:13;4.40;;;4.10;;
3101;SDS011;1561;42.666;23.392;2023-04-25T07:10:41;4.20;;;3.90;;
3101;SDS011;1561;42.666;23.392;2023-04-25T07:13:08;4.57;;;4.17;;
3101;SDS011;1561;42.666;23.392;2023-04-25T07:15:39;4.53;;;4.13;;
3101;SDS011;1561;42.666;23.392;2023-04-25T07:18:07;5.00;;;4.50;;
3101;SDS011;1561;42.666;23.392;2023-04-25T07:20:47;4.93;;;4.50;;
3101;SDS011;1561;42.666;23.392;2023-04-25T07:23:24;5.07;;;4.67;;
3101;SDS011;1561;42.666;23.392;2023-04-25T07:26:10;4.80;;;4.40;;
3101;SDS011;1561;42.666;23.392;2023-04-25T07:28:42;5.70;;;5.13;;
3101;SDS011;1561;42.666;23.392;2023-04-25T07:31:30;5.20;;;4.70;;
3101;SDS011;1561;42.666;23.392;2023-04-25T07:33:59;4.40;;;4.10;;
3101;SDS011;1561;42.666;23.392;2023-04-25T07:36:27;5.33;;;4.87;;
3101;SDS011;1561;42.666;23.392;2023-04-25T07:38:58;11.40;;;8.60;;
3101;SDS011;1561;42.666;23.392;2023-04-25T07:41:35;6.47;;;5.87;;
3101;SDS011;1561;42.666;23.392;2023-04-25T07:44:02;5.50;;;5.00;;
3101;SDS011;1561;42.666;23.392;2023-04-25T07:46:32;6.83;;;6.13;;
3101;SDS011;1561;42.666;23.392;2023-04-25T07:49:04;8.60;;;6.17;;
3101;SDS011;1561;42.666;23.392;2023-04-25T07:51:31;8.97;;;8.07;;
3101;SDS011;1561;42.666;23.392;2023-04-25T07:54:14;7.70;;;7.00;;
3101;SDS011;1561;42.666;23.392;2023-04-25T07:56:44;7.60;;;6.67;;
3101;SDS011;1561;42.666;23.392;2023-04-25T07:59:28;7.63;;;6.97;;
3101;SDS011;1561;42.666;23.392;2023-04-25T08:01:55;6.87;;;6.17;;
3101;SDS011;1561;42.666;23.392;2023-04-25T08:04:23;7.60;;;6.70;;
3101;SDS011;1561;42.666;23.392;2023-04-25T08:06:50;9.73;;;7.63;;
3101;SDS011;1561;42.666;23.392;2023-04-25T08:09:20;16.47;;;12.93;;
3101;SDS011;1561;42.666;23.392;2023-04-25T08:12:03;14.87;;;12.00;;
3101;SDS011;1561;42.666;23.392;2023-04-25T08:14:34;9.00;;;8.07;;
3101;SDS011;1561;42.666;23.392;2023-04-25T08:17:16;18.45;;;12.73;;
3101;SDS011;1561;42.666;23.392;2023-04-25T08:19:44;7.20;;;5.85;;
3101;SDS011;1561;42.666;23.392;2023-04-25T08:22:12;11.30;;;9.55;;
3101;SDS011;1561;42.666;23.392;2023-04-25T08:24:44;13.98;;;8.20;;
3101;SDS011;1561;42.666;23.392;2023-04-25T08:27:11;6.90;;;6.20;;
3101;SDS011;1561;42.666;23.392;2023-04-25T08:29:41;9.23;;;6.22;;
3101;SDS011;1561;42.666;23.392;2023-04-25T08:32:09;9.68;;;6.95;;
3101;SDS011;1561;42.666;23.392;2023-04-25T08:34:41;17.50;;;11.30;;
3101;SDS011;1561;42.666;23.392;2023-04-25T08:37:09;9.02;;;8.00;;
3101;SDS011;1561;42.666;23.392;2023-04-25T08:39:37;7.55;;;6.80;;
3101;SDS011;1561;42.666;23.392;2023-04-25T08:42:06;9.07;;;8.10;;
3101;SDS011;1561;42.666;23.392;2023-04-25T08:44:37;7.75;;;6.88;;
3101;SDS011;1561;42.666;23.392;2023-04-25T08:47:08;8.07;;;7.35;;
3101;SDS011;1561;42.666;23.392;2023-04-25T08:49:35;7.70;;;7.00;;
3101;SDS011;1561;42.666;23.392;2023-04-25T08:52:08;11.50;;;7.57;;
3101;SDS011;1561;42.666;23.392;2023-04-25T08:54:51;10.95;;;7.40;;
3101;SDS011;1561;42.666;23.392;2023-04-25T08:57:20;10.77;;;7.35;;
3101;SDS011;1561;42.666;23.392;2023-04-25T08:59:47;9.35;;;7.55;;
3101;SDS011;1561;42.666;23.392;2023-04-25T09:02:16;10.77;;;7.70;;
3101;SDS011;1561;42.666;23.392;2023-04-25T09:04:56;11.38;;;9.95;;
3101;SDS011;1561;42.666;23.392;2023-04-25T09:07:25;9.63;;;8.63;;
3101;SDS011;1561;42.666;23.392;2023-04-25T09:10:00;10.27;;;9.15;;
3101;SDS011;1561;42.666;23.392;2023-04-25T09:12:31;8.07;;;7.32;;
3101;SDS011;1561;42.666;23.392;2023-04-25T09:15:08;8.25;;;6.97;;
3101;SDS011;1561;42.666;23.392;2023-04-25T09:17:42;8.55;;;7.75;;
3101;SDS011;1561;42.666;23.392;2023-04-25T09:20:12;11.50;;;8.27;;
3101;SDS011;1561;42.666;23.392;2023-04-25T09:22:40;10.15;;;7.97;;
3101;SDS011;1561;42.666;23.392;2023-04-25T09:25:14;7.80;;;7.15;;
3101;SDS011;1561;42.666;23.392;2023-04-25T09:30:38;26.02;;;17.05;;
3101;SDS011;1561;42.666;23.392;2023-04-25T09:33:05;6.97;;;6.38;;
3101;SDS011;1561;42.666;23.392;2023-04-25T09:35:40;8.05;;;7.35;;
3101;SDS011;1561;42.666;23.392;2023-04-25T09:38:09;7.80;;;7.10;;
3101;SDS011;1561;42.666;23.392;2023-04-25T09:40:45;6.05;;;5.55;;
3101;SDS011;1561;42.666;23.392;2023-04-25T09:43:18;8.60;;;7.15;;
3101;SDS011;1561;42.666;23.392;2023-04-25T09:45:54;7.83;;;7.10;;
3101;SDS011;1561;42.666;23.392;2023-04-25T09:48:38;8.07;;;7.03;;
3101;SDS011;1561;42.666;23.392;2023-04-25T09:51:07;9.63;;;8.40;;
3101;SDS011;1561;42.666;23.392;2023-04-25T09:53:41;8.77;;;7.27;;
3101;SDS011;1561;42.666;23.392;2023-04-25T09:56:11;7.07;;;6.47;;
3101;SDS011;1561;42.666;23.392;2023-04-25T09:58:40;7.10;;;6.25;;
3101;SDS011;1561;42.666;23.392;2023-04-25T10:01:18;10.17;;;7.07;;
3101;SDS011;1561;42.666;23.392;2023-04-25T10:03:51;7.38;;;6.65;;
3101;SDS011;1561;42.666;23.392;2023-04-25T10:06:24;7.05;;;6.13;;
3101;SDS011;1561;42.666;23.392;2023-04-25T10:08:53;6.97;;;6.27;;
3101;SDS011;1561;42.666;23.392;2023-04-25T10:11:24;7.93;;;6.32;;
3101;SDS011;1561;42.666;23.392;2023-04-25T10:13:57;8.80;;;7.00;;
3101;SDS011;1561;42.666;23.392;2023-04-25T10:16:40;8.20;;;6.57;;
3101;SDS011;1561;42.666;23.392;2023-04-25T10:19:19;6.00;;;4.93;;
3101;SDS011;1561;42.666;23.392;2023-04-25T10:21:48;3.90;;;3.60;;
3101;SDS011;1561;42.666;23.392;2023-04-25T10:24:19;4.50;;;4.20;;
3101;SDS011;1561;42.666;23.392;2023-04-25T10:27:01;8.70;;;6.20;;
3101;SDS011;1561;42.666;23.392;2023-04-25T10:29:31;9.13;;;6.97;;
3101;SDS011;1561;42.666;23.392;2023-04-25T10:32:06;10.47;;;6.70;;
3101;SDS011;1561;42.666;23.392;2023-04-25T10:34:40;11.07;;;7.43;;
3101;SDS011;1561;42.666;23.392;2023-04-25T10:37:11;11.70;;;8.17;;
3101;SDS011;1561;42.666;23.392;2023-04-25T10:39:42;8.60;;;6.63;;
3101;SDS011;1561;42.666;23.392;2023-04-25T10:42:10;5.17;;;4.50;;
3101;SDS011;1561;42.666;23.392;2023-04-25T10:45:00;5.00;;;4.53;;
3101;SDS011;1561;42.666;23.392;2023-04-25T10:47:43;7.03;;;5.18;;
3101;SDS011;1561;42.666;23.392;2023-04-25T10:50:37;6.65;;;5.32;;
3101;SDS011;1561;42.666;23.392;2023-04-25T10:53:13;5.07;;;3.65;;
3101;SDS011;1561;42.666;23.392;2023-04-25T10:55:53;4.95;;;3.00;;
3101;SDS011;1561;42.666;23.392;2023-04-25T11:04:20;3.43;;;2.90;;
3101;SDS011;1561;42.666;23.392;2023-04-25T11:06:51;3.30;;;3.00;;
3101;SDS011;1561;42.666;23.392;2023-04-25T11:15:35;4.90;;;2.88;;
3101;SDS011;1561;42.666;23.392;2023-04-25T11:18:03;4.35;;;3.20;;
3101;SDS011;1561;42.666;23.392;2023-04-25T11:32:46;3.03;;;2.83;;
3101;SDS011;1561;42.666;23.392;2023-04-25T11:35:14;3.03;;;2.53;;
3101;SDS011;1561;42.666;23.392;2023-04-25T11:37:50;4.47;;;3.00;;
3101;SDS011;1561;42.666;23.392;2023-04-25T11:40:35;3.77;;;2.30;;
3101;SDS011;1561;42.666;23.392;2023-04-25T11:43:02;3.50;;;2.67;;
3101;SDS011;1561;42.666;23.392;2023-04-25T11:48:38;3.17;;;2.90;;
3101;SDS011;1561;42.666;23.392;2023-04-25T11:51:11;5.53;;;5.03;;
3101;SDS011;1561;42.666;23.392;2023-04-25T12:05:58;4.70;;;2.13;;
3101;SDS011;1561;42.666;23.392;2023-04-25T12:08:33;4.43;;;4.10;;
3101;SDS011;1561;42.666;23.392;2023-04-25T12:11:19;2.00;;;0.83;;
3101;SDS011;1561;42.666;23.392;2023-04-25T12:14:01;1.43;;;1.20;;
3101;SDS011;1561;42.666;23.392;2023-04-25T12:16:39;1.57;;;1.40;;
3101;SDS011;1561;42.666;23.392;2023-04-25T12:19:19;2.03;;;1.93;;
3101;SDS011;1561;42.666;23.392;2023-04-25T12:22:18;2.73;;;1.47;;
3101;SDS011;1561;42.666;23.392;2023-04-25T12:34:08;3.10;;;2.67;;
3101;SDS011;1561;42.666;23.392;2023-04-25T12:36:54;3.73;;;2.27;;
3101;SDS011;1561;42.666;23.392;2023-04-25T12:39:26;1.97;;;1.50;;
3101;SDS011;1561;42.666;23.392;2023-04-25T12:41:53;1.57;;;1.47;;
3101;SDS011;1561;42.666;23.392;2023-04-25T12:59:25;2.00;;;1.60;;
3101;SDS011;1561;42.666;23.392;2023-04-25T13:05:15;4.40;;;2.00;;
3101;SDS011;1561;42.666;23.392;2023-04-25T13:07:45;4.27;;;2.27;;
3101;SDS011;1561;42.666;23.392;2023-04-25T13:10:11;8.67;;;2.73;;
3101;SDS011;1561;42.666;23.392;2023-04-25T13:12:44;4.23;;;3.50;;
3101;SDS011;1561;42.666;23.392;2023-04-25T13:15:15;5.27;;;3.50;;
3101;SDS011;1561;42.666;23.392;2023-04-25T13:17:49;4.83;;;2.47;;
3101;SDS011;1561;42.666;23.392;2023-04-25T13:20:18;2.63;;;2.33;;
3101;SDS011;1561;42.666;23.392;2023-04-25T13:22:58;2.10;;;1.83;;
3101;SDS011;1561;42.666;23.392;2023-04-25T13:25:37;2.53;;;2.33;;
3101;SDS011;1561;42.666;23.392;2023-04-25T13:28:15;3.07;;;2.50;;
3101;SDS011;1561;42.666;23.392;2023-04-25T13:33:53;5.00;;;3.10;;
3101;SDS011;1561;42.666;23.392;2023-04-25T13:36:25;3.43;;;3.00;;
3101;SDS011;1561;42.666;23.392;2023-04-25T13:39:03;5.00;;;3.27;;
3101;SDS011;1561;42.666;23.392;2023-04-25T13:41:40;4.63;;;2.97;;
3101;SDS011;1561;42.666;23.392;2023-04-25T13:47:10;4.33;;;3.07;;
3101;SDS011;1561;42.666;23.392;2023-04-25T13:49:47;5.20;;;3.00;;
3101;SDS011;1561;42.666;23.392;2023-04-25T13:55:17;9.80;;;5.27;;
3101;SDS011;1561;42.666;23.392;2023-04-25T13:57:49;6.43;;;3.97;;
3101;SDS011;1561;42.666;23.392;2023-04-25T14:00:33;5.50;;;3.63;;
3101;SDS011;1561;42.666;23.392;2023-04-25T14:03:13;4.07;;;3.60;;
3101;SDS011;1561;42.666;23.392;2023-04-25T14:11:45;3.87;;;3.40;;
3101;SDS011;1561;42.666;23.392;2023-04-25T14:14:20;4.63;;;3.67;;
3101;SDS011;1561;42.666;23.392;2023-04-25T14:16:47;8.60;;;3.10;;
3101;SDS011;1561;42.666;23.392;2023-04-25T14:19:19;4.60;;;3.33;;
3101;SDS011;1561;42.666;23.392;2023-04-25T14:21:53;3.50;;;2.83;;
3101;SDS011;1561;42.666;23.392;2023-04-25T14:24:22;3.07;;;2.77;;
3101;SDS011;1561;42.666;23.392;2023-04-25T14:26:52;3.50;;;1.90;;
3101;SDS011;1561;42.666;23.392;2023-04-25T14:29:29;2.17;;;1.97;;
3101;SDS011;1561;42.666;23.392;2023-04-25T14:32:08;2.23;;;2.03;;
3101;SDS011;1561;42.666;23.392;2023-04-25T14:34:38;2.87;;;2.47;;
3101;SDS011;1561;42.666;23.392;2023-04-25T14:37:07;2.63;;;2.00;;
3101;SDS011;1561;42.666;23.392;2023-04-25T14:42:07;1.83;;;1.67;;
3101;SDS011;1561;42.666;23.392;2023-04-25T14:44:34;1.23;;;1.23;;
3101;SDS011;1561;42.666;23.392;2023-04-25T14:47:01;1.90;;;1.40;;
3101;SDS011;1561;42.666;23.392;2023-04-25T14:49:31;6.20;;;2.73;;
3101;SDS011;1561;42.666;23.392;2023-04-25T14:52:01;2.50;;;2.30;;
3101;SDS011;1561;42.666;23.392;2023-04-25T14:54:29;15.93;;;10.47;;
3101;SDS011;1561;42.666;23.392;2023-04-25T14:57:02;3.20;;;2.43;;
3101;SDS011;1561;42.666;23.392;2023-04-25T14:59:30;4.00;;;1.77;;
3101;SDS011;1561;42.666;23.392;2023-04-25T15:02:18;3.57;;;3.23;;
3101;SDS011;1561;42.666;23.392;2023-04-25T15:04:45;1.70;;;1.60;;
3101;SDS011;1561;42.666;23.392;2023-04-25T15:07:12;3.03;;;2.40;;
3101;SDS011;1561;42.666;23.392;2023-04-25T15:12:41;2.10;;;2.00;;
3101;SDS011;1561;42.666;23.392;2023-04-25T15:15:12;3.37;;;2.60;;
3101;SDS011;1561;42.666;23.392;2023-04-25T15:17:43;3.50;;;2.90;;
3101;SDS011;1561;42.666;23.392;2023-04-25T15:20:27;10.43;;;7.00;;
3101;SDS011;1561;42.666;23.392;2023-04-25T15:22:54;3.80;;;2.37;;
3101;SDS011;1561;42.666;23.392;2023-04-25T15:25:21;9.00;;;5.90;;
3101;SDS011;1561;42.666;23.392;2023-04-25T15:27:51;1.73;;;1.63;;
3101;SDS011;1561;42.666;23.392;2023-04-25T15:30:26;2.57;;;2.37;;
3101;SDS011;1561;42.666;23.392;2023-04-25T15:33:02;2.00;;;1.90;;
3101;SDS011;1561;42.666;23.392;2023-04-25T15:35:29;2.30;;;2.13;;
3101;SDS011;1561;42.666;23.392;2023-04-25T15:37:58;1.73;;;1.43;;
3101;SDS011;1561;42.666;23.392;2023-04-25T15:40:25;2.07;;;1.87;;
3101;SDS011;1561;42.666;23.392;2023-04-25T15:45:59;3.20;;;2.10;;
3101;SDS011;1561;42.666;23.392;2023-04-25T15:48:27;1.63;;;1.53;;
3101;SDS011;1561;42.666;23.392;2023-04-25T15:53:55;1.90;;;1.80;;
3101;SDS011;1561;42.666;23.392;2023-04-25T15:56:26;7.10;;;2.20;;
3101;SDS011;1561;42.666;23.392;2023-04-25T15:58:54;1.80;;;1.70;;
3101;SDS011;1561;42.666;23.392;2023-04-25T16:01:26;5.03;;;2.30;;
3101;SDS011;1561;42.666;23.392;2023-04-25T16:03:56;4.40;;;1.97;;
3101;SDS011;1561;42.666;23.392;2023-04-25T16:06:26;2.77;;;2.57;;
3101;SDS011;1561;42.666;23.392;2023-04-25T16:08:54;1.70;;;1.60;;
3101;SDS011;1561;42.666;23.392;2023-04-25T16:14:08;2.73;;;2.53;;
3101;SDS011;1561;42.666;23.392;2023-04-25T16:16:43;4.07;;;2.90;;
3101;SDS011;1561;42.666;23.392;2023-04-25T16:19:11;4.93;;;3.80;;
3101;SDS011;1561;42.666;23.392;2023-04-25T16:21:40;8.80;;;3.10;;
3101;SDS011;1561;42.666;23.392;2023-04-25T16:27:01;5.53;;;2.90;;
3101;SDS011;1561;42.666;23.392;2023-04-25T16:29:29;3.40;;;3.10;;
3101;SDS011;1561;42.666;23.392;2023-04-25T16:32:02;3.77;;;3.13;;
3101;SDS011;1561;42.666;23.392;2023-04-25T16:34:37;3.03;;;2.73;;
3101;SDS011;1561;42.666;23.392;2023-04-25T16:37:08;2.70;;;2.50;;
3101;SDS011;1561;42.666;23.392;2023-04-25T16:39:40;2.63;;;2.37;;
3101;SDS011;1561;42.666;23.392;2023-04-25T16:42:10;2.97;;;2.77;;
3101;SDS011;1561;42.666;23.392;2023-04-25T16:44:51;6.20;;;3.30;;
3101;SDS011;1561;42.666;23.392;2023-04-25T16:47:37;4.67;;;2.40;;
3101;SDS011;1561;42.666;23.392;2023-04-25T16:50:19;2.87;;;2.27;;
3101;SDS011;1561;42.666;23.392;2023-04-25T16:52:49;2.50;;;2.30;;
3101;SDS011;1561;42.666;23.392;2023-04-25T16:55:24;3.80;;;2.83;;
3101;SDS011;1561;42.666;23.392;2023-04-25T17:00:59;4.53;;;4.13;;
3101;SDS011;1561;42.666;23.392;2023-04-25T17:03:34;5.43;;;4.40;;
3101;SDS011;1561;42.666;23.392;2023-04-25T17:06:00;6.00;;;5.33;;
3101;SDS011;1561;42.666;23.392;2023-04-25T17:08:29;7.97;;;6.27;;
3101;SDS011;1561;42.666;23.392;2023-04-25T17:10:56;7.27;;;6.00;;
3101;SDS011;1561;42.666;23.392;2023-04-25T17:13:26;7.17;;;5.93;;
3101;SDS011;1561;42.666;23.392;2023-04-25T17:15:57;9.00;;;6.30;;
3101;SDS011;1561;42.666;23.392;2023-04-25T17:18:25;9.07;;;6.00;;
3101;SDS011;1561;42.666;23.392;2023-04-25T17:33:02;6.43;;;5.80;;
3101;SDS011;1561;42.666;23.392;2023-04-25T17:35:32;9.50;;;4.93;;
3101;SDS011;1561;42.666;23.392;2023-04-25T17:38:00;5.20;;;4.70;;
3101;SDS011;1561;42.666;23.392;2023-04-25T17:40:28;6.70;;;4.70;;
3101;SDS011;1561;42.666;23.392;2023-04-25T17:42:56;8.00;;;6.00;;
3101;SDS011;1561;42.666;23.392;2023-04-25T17:45:24;5.73;;;4.80;;
3101;SDS011;1561;42.666;23.392;2023-04-25T17:48:02;5.23;;;3.97;;
3101;SDS011;1561;42.666;23.392;2023-04-25T17:50:39;6.07;;;4.60;;
3101;SDS011;1561;42.666;23.392;2023-04-25T17:53:07;6.67;;;4.13;;
3101;SDS011;1561;42.666;23.392;2023-04-25T17:55:34;3.97;;;3.43;;
3101;SDS011;1561;42.666;23.392;2023-04-25T17:58:16;3.03;;;2.73;;
3101;SDS011;1561;42.666;23.392;2023-04-25T18:00:47;5.20;;;3.27;;
3101;SDS011;1561;42.666;23.392;2023-04-25T18:03:15;3.60;;;3.30;;
3101;SDS011;1561;42.666;23.392;2023-04-25T18:05:46;3.10;;;2.80;;
3101;SDS011;1561;42.666;23.392;2023-04-25T18:08:13;2.67;;;2.47;;
3101;SDS011;1561;42.666;23.392;2023-04-25T18:10:41;3.03;;;2.50;;
3101;SDS011;1561;42.666;23.392;2023-04-25T18:13:09;4.30;;;2.07;;
3101;SDS011;1561;42.666;23.392;2023-04-25T18:15:41;2.70;;;2.50;;
3101;SDS011;1561;42.666;23.392;2023-04-25T18:18:28;2.70;;;2.50;;
3101;SDS011;1561;42.666;23.392;2023-04-25T18:21:03;3.80;;;2.20;;
3101;SDS011;1561;42.666;23.392;2023-04-25T18:23:32;2.40;;;2.20;;
3101;SDS011;1561;42.666;23.392;2023-04-25T18:26:00;2.40;;;2.20;;
3101;SDS011;1561;42.666;23.392;2023-04-25T18:28:39;2.70;;;2.50;;
3101;SDS011;1561;42.666;23.392;2023-04-25T18:31:08;2.57;;;2.10;;
3101;SDS011;1561;42.666;23.392;2023-04-25T18:34:00;2.30;;;2.10;;
3101;SDS011;1561;42.666;23.392;2023-04-25T18:36:30;2.90;;;2.53;;
3101;SDS011;1561;42.666;23.392;2023-04-25T18:39:00;3.43;;;2.63;;
3101;SDS011;1561;42.666;23.392;2023-04-25T18:41:32;2.87;;;2.33;;
3101;SDS011;1561;42.666;23.392;2023-04-25T18:49:39;2.73;;;2.17;;
3101;SDS011;1561;42.666;23.392;2023-04-25T18:52:09;3.27;;;2.97;;
3101;SDS011;1561;42.666;23.392;2023-04-25T18:54:39;3.23;;;2.70;;
3101;SDS011;1561;42.666;23.392;2023-04-25T18:57:09;4.47;;;3.43;;
3101;SDS011;1561;42.666;23.392;2023-04-25T18:59:39;3.87;;;3.30;;
3101;SDS011;1561;42.666;23.392;2023-04-25T19:02:18;4.70;;;3.37;;
3101;SDS011;1561;42.666;23.392;2023-04-25T19:13:32;3.40;;;3.10;;
3101;SDS011;1561;42.666;23.392;2023-04-25T19:19:02;3.80;;;3.10;;
3101;SDS011;1561;42.666;23.392;2023-04-25T19:21:38;3.37;;;3.07;;
3101;SDS011;1561;42.666;23.392;2023-04-25T19:24:19;4.83;;;2.57;;
3101;SDS011;1561;42.666;23.392;2023-04-25T19:33:00;3.10;;;2.33;;
3101;SDS011;1561;42.666;23.392;2023-04-25T19:35:32;2.87;;;2.50;;
3101;SDS011;1561;42.666;23.392;2023-04-25T19:38:00;5.07;;;3.07;;
3101;SDS011;1561;42.666;23.392;2023-04-25T19:46:31;3.27;;;2.97;;
3101;SDS011;1561;42.666;23.392;2023-04-25T19:49:10;4.17;;;2.70;;
3101;SDS011;1561;42.666;23.392;2023-04-25T19:51:49;3.53;;;2.63;;
3101;SDS011;1561;42.666;23.392;2023-04-25T20:03:27;4.83;;;2.80;;
3101;SDS011;1561;42.666;23.392;2023-04-25T20:06:04;5.33;;;4.00;;
3101;SDS011;1561;42.666;23.392;2023-04-25T20:08:34;4.53;;;4.13;;
3101;SDS011;1561;42.666;23.392;2023-04-25T20:20:32;11.63;;;7.57;;
3101;SDS011;1561;42.666;23.392;2023-04-25T20:23:07;9.30;;;7.43;;
3101;SDS011;1561;42.666;23.392;2023-04-25T20:28:40;7.10;;;5.57;;
3101;SDS011;1561;42.666;23.392;2023-04-25T20:31:14;8.67;;;5.27;;
3101;SDS011;1561;42.666;23.392;2023-04-25T20:33:42;7.30;;;5.67;;
3101;SDS011;1561;42.666;23.392;2023-04-25T20:39:17;6.17;;;5.30;;